Anwaar Alnaser — 5AXD — position and weather

sailwx.info

Track history (hours):
 
Tides and Currents Weather Stations Pressure Air Temp Water Temp Dewpoint Dewpoint Depression Visibility Wind Speed Wind Dir Waves Ship Positions

Anwaar Alnaser

Last reported at 2016-May-27 13:33 UTC. Time now 2016-May-27 22:02 UTC.
Position N 32°49' E 012°42'.

Length 165 m; draft 9.1 m.

Type: Ship (hazmat cat D). MMSI: 642122018.

Date/timePositionNaut miles runAvg speedWind from/ knotsBaromVisibWave heightAir tempDewpointWater temp
2016-May-27 13:33N 32°49' E 012°42'1 0.2
2016-May-27 05:19N 32°50' E 012°40'13 2.3
2016-May-26 23:34N 33°00' E 012°50'1313.5
2016-May-26 22:34N 33°09' E 013°03'1313.3
2016-May-26 21:33N 33°08' E 013°18'4113.6
2016-May-26 18:31N 32°55' E 014°05'1612.3
2016-May-26 17:11N 32°43' E 014°19'1 1.6
2016-May-26 16:33N 32°42' E 014°19'4 0.1
2016-May-25 12:13N 32°39' E 014°20'4 6.1
2016-May-25 11:31N 32°42' E 014°18'0 0.1
2016-May-25 09:28N 32°42' E 014°18'0 0.0
2016-May-25 08:16N 32°42' E 014°18'0 0.0
2016-May-24 18:31N 32°42' E 014°18'0 0.0
2016-May-24 17:31N 32°42' E 014°18'0 0.0
2016-May-24 16:22N 32°42' E 014°18'0 0.0
2016-May-24 13:18N 32°42' E 014°18'0 0.0
2016-May-24 12:33N 32°42' E 014°18'0 0.0
2016-May-23 18:23N 32°42' E 014°18'0 0.0
2016-May-22 16:22N 32°42' E 014°18'0 0.0
2016-May-22 15:13N 32°42' E 014°18'  
2016-May-18 16:26N 33°49' E 011°35'4214.6
2016-May-18 13:34N 33°30' E 012°20'19414.7
2016-May-18 00:18N 33°34' E 016°13'  
Track history (hours):
 
Tides and Currents Weather Stations Pressure Air Temp Water Temp Dewpoint Dewpoint Depression Visibility Wind Speed Wind Dir Waves Ship Positions

Anwaar Alnaser

Last reported at 2016-May-27 13:33 UTC. Time now 2016-May-27 22:02 UTC.
Position N 32°49' E 012°42'.

Length 165 m; draft 9.1 m.

Type: Ship (hazmat cat D). MMSI: 642122018.

Date/timePositionNaut miles runAvg speedWind from/ knotsBaromVisibWave heightAir tempDewpointWater temp
2016-May-27 13:33N 32°49' E 012°42'1 0.2
2016-May-27 05:19N 32°50' E 012°40'13 2.3
2016-May-26 23:34N 33°00' E 012°50'1313.5
2016-May-26 22:34N 33°09' E 013°03'1313.3
2016-May-26 21:33N 33°08' E 013°18'4113.6
2016-May-26 18:31N 32°55' E 014°05'1612.3
2016-May-26 17:11N 32°43' E 014°19'1 1.6
2016-May-26 16:33N 32°42' E 014°19'4 0.1
2016-May-25 12:13N 32°39' E 014°20'4 6.1
2016-May-25 11:31N 32°42' E 014°18'0 0.1
2016-May-25 09:28N 32°42' E 014°18'0 0.0
2016-May-25 08:16N 32°42' E 014°18'0 0.0
2016-May-24 18:31N 32°42' E 014°18'0 0.0
2016-May-24 17:31N 32°42' E 014°18'0 0.0
2016-May-24 16:22N 32°42' E 014°18'0 0.0
2016-May-24 13:18N 32°42' E 014°18'0 0.0
2016-May-24 12:33N 32°42' E 014°18'0 0.0
2016-May-23 18:23N 32°42' E 014°18'0 0.0
2016-May-22 16:22N 32°42' E 014°18'0 0.0
2016-May-22 15:13N 32°42' E 014°18'  
2016-May-18 16:26N 33°49' E 011°35'4214.6
2016-May-18 13:34N 33°30' E 012°20'19414.7
2016-May-18 00:18N 33°34' E 016°13'  

Dump ship's entire track history